Time;durP1;ratioP1;P1;durP2;ratioP2;P2;SDS_P1;SDS_P2;PMS_P1;PMS_P2;Temp;Humidity;BMP_temperature;BMP_pressure;BME280_temperature;BME280_humidity;BME280_pressure;Samples;Min_cycle;Max_cycle;Signal;HPM_P1;HPM_P2
2022/10/02 00:02:15;;;;;;;1.90;1.65;;;;;;;14.29;69.69;99548.28;4483324;32;33988;-70
2022/10/02 00:05:04;;;;;;;2.12;1.60;;;;;;;14.37;68.83;99549.66;4482993;32;34251;-81
2022/10/02 00:07:50;;;;;;;1.90;1.70;;;;;;;14.26;69.36;99564.44;4483219;32;33843;-70
2022/10/02 00:10:33;;;;;;;2.12;1.60;;;;;;;14.55;68.20;99554.50;4483901;32;34138;-70
2022/10/02 00:13:05;;;;;;;1.92;1.60;;;;;;;14.14;69.56;99564.72;4483220;32;34711;-73
2022/10/02 00:15:35;;;;;;;2.50;1.70;;;;;;;14.14;69.48;99570.97;4482894;32;34211;-80
2022/10/02 00:18:06;;;;;;;2.15;1.73;;;;;;;14.36;68.91;99573.41;4483647;32;33942;-70
2022/10/02 00:21:05;;;;;;;3.50;1.58;;;;;;;14.22;70.07;99575.06;4469773;32;33402;-71
2022/10/02 00:23:45;;;;;;;2.75;2.10;;;;;;;14.42;68.88;99573.38;4467254;32;34029;-71
2022/10/02 00:26:29;;;;;;;3.12;1.83;;;;;;;14.28;69.40;99581.34;4468245;32;34443;-70
2022/10/02 00:29:23;;;;;;;1.83;1.62;;;;;;;14.35;69.56;99579.94;4468313;32;33703;-72
2022/10/02 00:32:05;;;;;;;2.45;1.50;;;;;;;14.45;69.03;99579.09;4468213;32;33330;-70
2022/10/02 00:34:49;;;;;;;2.17;1.65;;;;;;;14.35;69.34;99588.13;4467976;32;33834;-71
2022/10/02 00:37:21;;;;;;;2.73;1.80;;;;;;;14.40;69.32;99590.03;4468171;32;34729;-71
2022/10/02 00:40:10;;;;;;;3.42;1.85;;;;;;;14.32;69.37;99596.87;4468279;32;34801;-71
2022/10/02 00:42:53;;;;;;;2.97;1.90;;;;;;;14.28;69.49;99603.97;4468313;32;34109;-70
2022/10/02 00:45:32;;;;;;;3.70;1.80;;;;;;;14.23;69.86;99594.97;4466870;32;34741;-70
2022/10/02 00:48:21;;;;;;;2.37;1.77;;;;;;;14.03;70.75;99593.94;4468043;32;34014;-78
2022/10/02 00:51:23;;;;;;;2.55;1.70;;;;;;;14.11;70.36;99600.75;4468420;32;33975;-70
2022/10/02 00:54:28;;;;;;;3.05;1.70;;;;;;;14.28;69.65;99595.00;4468179;32;33387;-71
2022/10/02 00:57:18;;;;;;;3.37;1.42;;;;;;;14.40;68.83;99602.84;4468113;32;34352;-71
2022/10/02 01:00:01;;;;;;;2.95;1.67;;;;;;;14.31;69.48;99605.34;4466612;32;34962;-70
2022/10/02 01:02:54;;;;;;;2.42;1.48;;;;;;;14.16;70.04;99598.00;4483173;32;33972;-69
2022/10/02 01:05:21;;;;;;;2.75;1.90;;;;;;;14.18;69.42;99604.00;4480740;32;34358;-72
2022/10/02 01:07:50;;;;;;;2.50;1.70;;;;;;;14.18;70.27;99597.72;4483504;32;34715;-71
2022/10/02 01:10:21;;;;;;;1.45;1.35;;;;;;;14.21;69.75;99603.47;4481701;32;34067;-72
2022/10/02 01:12:49;;;;;;;1.60;1.50;;;;;;;14.33;69.53;99597.69;4483672;32;33597;-71
2022/10/02 01:15:19;;;;;;;1.83;1.62;;;;;;;14.42;69.33;99606.13;4483155;32;33494;-79
2022/10/02 01:17:49;;;;;;;2.33;1.40;;;;;;;14.55;68.64;99617.28;4482263;32;34054;-71
2022/10/02 01:20:27;;;;;;;2.17;1.37;;;;;;;14.40;69.56;99622.78;4472086;32;34335;-71
2022/10/02 01:23:14;;;;;;;2.95;1.55;;;;;;;14.43;69.10;99624.97;4466658;32;34518;-71
2022/10/02 01:25:42;;;;;;;1.87;1.58;;;;;;;14.45;69.37;99633.69;4466102;32;33434;-70
2022/10/02 01:28:10;;;;;;;3.58;1.50;;;;;;;14.33;69.14;99617.59;4467545;32;34821;-70
2022/10/02 01:30:41;;;;;;;2.12;1.60;;;;;;;14.76;68.01;99628.97;4466985;32;35012;-71
2022/10/02 01:33:09;;;;;;;2.22;1.40;;;;;;;14.84;67.03;99641.22;4468880;32;33976;-71
2022/10/02 01:35:38;;;;;;;1.55;1.17;;;;;;;14.42;68.75;99655.25;4482638;32;33090;-70
2022/10/02 01:38:08;;;;;;;1.70;1.30;;;;;;;14.67;67.93;99657.94;4484001;32;34552;-69
2022/10/02 01:40:38;;;;;;;1.85;1.42;;;;;;;14.62;68.16;99660.72;4483579;32;34257;-70
2022/10/02 01:43:05;;;;;;;1.73;1.50;;;;;;;14.74;67.54;99653.00;4484173;32;34595;-71
2022/10/02 01:45:53;;;;;;;2.35;1.75;;;;;;;14.85;67.04;99663.91;4485306;32;34147;-70
2022/10/02 01:49:12;;;;;;;1.75;1.45;;;;;;;14.34;69.36;99670.28;4483705;32;33876;-71
2022/10/02 01:52:05;;;;;;;3.17;1.33;;;;;;;14.60;68.49;99673.81;4455855;32;35097;-71
2022/10/02 01:54:57;;;;;;;1.52;1.42;;;;;;;14.59;68.38;99677.62;4468068;32;33904;-70
2022/10/02 01:57:43;;;;;;;5.43;1.50;;;;;;;14.79;67.85;99697.78;4468054;32;34164;-70
2022/10/02 02:00:10;;;;;;;1.70;1.42;;;;;;;14.18;70.12;99704.97;4469539;32;33812;-70
2022/10/02 02:03:13;;;;;;;1.95;1.50;;;;;;;14.32;69.65;99710.69;4469389;32;34334;-71
2022/10/02 02:05:46;;;;;;;1.70;1.50;;;;;;;14.80;68.08;99713.91;4451991;32;33730;-70
2022/10/02 02:08:36;;;;;;;1.92;1.50;;;;;;;15.06;66.83;99705.63;4469529;32;34200;-70
2022/10/02 02:11:10;;;;;;;2.30;1.60;;;;;;;14.60;68.00;99711.22;4468243;32;33914;-70
2022/10/02 02:13:54;;;;;;;5.15;1.45;;;;;;;14.78;67.67;99721.56;4480269;32;34135;-70
2022/10/02 02:16:30;;;;;;;1.80;1.30;;;;;;;14.92;66.98;99722.62;4483667;32;34037;-74
2022/10/02 02:19:00;;;;;;;1.48;1.35;;;;;;;14.68;68.00;99724.31;4482489;32;33478;-71
2022/10/02 02:21:51;;;;;;;1.87;1.40;;;;;;;14.60;68.28;99720.25;4468959;32;34691;-70
2022/10/02 02:24:29;;;;;;;2.05;1.37;;;;;;;14.34;69.26;99722.97;4468305;32;33705;-71
2022/10/02 02:26:59;;;;;;;2.55;1.30;;;;;;;14.52;68.89;99723.50;4467931;32;33860;-71
2022/10/02 02:29:29;;;;;;;1.92;1.27;;;;;;;14.60;68.50;99727.59;4467977;32;33204;-72
2022/10/02 02:31:57;;;;;;;1.48;1.35;;;;;;;14.27;70.06;99724.31;4467778;32;34537;-71
2022/10/02 02:34:39;;;;;;;2.70;1.33;;;;;;;14.28;69.50;99726.78;4468008;32;35001;-71
2022/10/02 02:37:10;;;;;;;5.10;1.23;;;;;;;14.23;70.12;99731.41;4468057;32;33569;-70
2022/10/02 02:39:47;;;;;;;2.35;1.40;;;;;;;14.23;69.75;99729.50;4467991;32;33265;-70
2022/10/02 02:42:15;;;;;;;1.15;1.05;;;;;;;13.97;70.90;99728.69;4469047;32;34728;-69
2022/10/02 02:44:50;;;;;;;1.75;1.50;;;;;;;14.07;70.38;99728.69;4474716;32;35042;-71
2022/10/02 02:47:23;;;;;;;1.30;1.17;;;;;;;14.27;69.50;99737.97;4484881;32;34183;-70
2022/10/02 02:49:58;;;;;;;1.73;1.20;;;;;;;14.43;68.91;99736.88;4483003;32;33215;-71
2022/10/02 02:52:29;;;;;;;2.72;1.27;;;;;;;14.52;68.61;99742.59;4483744;32;34710;-70
2022/10/02 02:55:11;;;;;;;1.65;1.25;;;;;;;14.13;70.04;99735.78;4483692;32;33930;-70
2022/10/02 02:57:46;;;;;;;2.35;1.10;;;;;;;14.06;70.17;99750.78;4469228;32;34743;-70
2022/10/02 03:00:15;;;;;;;1.33;1.00;;;;;;;13.99;70.97;99752.97;4467998;32;33244;-70
2022/10/02 03:02:42;;;;;;;2.90;1.20;;;;;;;14.32;69.21;99757.09;4469123;32;33822;-70
2022/10/02 03:05:14;;;;;;;1.42;1.20;;;;;;;13.98;70.76;99754.88;4469090;32;34333;-70
2022/10/02 03:08:03;;;;;;;1.75;1.40;;;;;;;14.11;70.22;99765.25;4467832;32;33972;-71
2022/10/02 03:10:46;;;;;;;5.12;1.37;;;;;;;13.90;71.14;99758.94;4475825;32;33375;-71
2022/10/02 03:13:38;;;;;;;2.42;1.08;;;;;;;14.03;70.88;99764.97;4483381;32;34060;-70
2022/10/02 03:16:38;;;;;;;1.45;1.10;;;;;;;13.89;71.41;99760.06;4484890;32;34014;-70
2022/10/02 03:19:12;;;;;;;6.70;1.40;;;;;;;14.08;70.40;99768.53;4482708;32;33871;-72
2022/10/02 03:21:54;;;;;;;1.20;1.10;;;;;;;14.12;70.32;99768.78;4484551;32;33150;-72
2022/10/02 03:24:35;;;;;;;2.62;1.10;;;;;;;14.19;70.34;99765.78;4484917;32;33752;-70
2022/10/02 03:27:19;;;;;;;2.67;1.17;;;;;;;14.09;71.07;99778.34;4483624;32;34010;-71
2022/10/02 03:29:55;;;;;;;1.60;1.12;;;;;;;14.28;70.12;99780.56;4483422;32;34604;-71
2022/10/02 03:32:23;;;;;;;1.58;1.10;;;;;;;14.32;69.69;99776.19;4484753;32;33504;-71
2022/10/02 03:34:51;;;;;;;1.23;0.98;;;;;;;14.18;70.59;99784.09;4483132;32;34545;-71
2022/10/02 03:37:19;;;;;;;1.20;0.90;;;;;;;14.15;70.58;99792.81;4483416;32;34517;-71
2022/10/02 03:39:48;;;;;;;1.45;1.25;;;;;;;14.00;71.60;99788.16;4483341;32;33860;-72
2022/10/02 03:42:21;;;;;;;2.05;1.10;;;;;;;13.90;71.83;99801.78;4476151;32;33299;-72
2022/10/02 03:44:49;;;;;;;1.62;1.50;;;;;;;14.26;70.48;99793.66;4467468;32;33593;-71
2022/10/02 03:47:16;;;;;;;2.08;1.35;;;;;;;14.39;69.84;99795.84;4468700;32;35153;-72
2022/10/02 03:49:45;;;;;;;1.40;1.30;;;;;;;14.39;69.98;99797.75;4478184;32;33389;-70
2022/10/02 03:52:15;;;;;;;1.35;1.10;;;;;;;14.08;70.97;99803.16;4483853;32;34115;-71
2022/10/02 03:54:43;;;;;;;1.90;1.37;;;;;;;14.28;70.28;99807.84;4484242;32;33900;-71
2022/10/02 03:57:20;;;;;;;1.55;1.10;;;;;;;14.51;69.12;99807.31;4484896;32;34240;-70
2022/10/02 03:59:50;;;;;;;5.37;1.50;;;;;;;14.55;69.18;99802.94;4483164;32;34750;-72
2022/10/02 04:02:42;;;;;;;1.52;1.17;;;;;;;14.50;69.26;99811.13;4469650;32;33332;-71
2022/10/02 04:05:23;;;;;;;1.35;1.00;;;;;;;14.16;70.37;99813.56;4463419;32;34544;-70
2022/10/02 04:07:55;;;;;;;1.73;1.20;;;;;;;14.64;68.84;99810.59;4466670;32;34402;-71
2022/10/02 04:10:41;;;;;;;1.37;1.25;;;;;;;14.46;69.46;99809.22;4467673;32;33961;-71
2022/10/02 04:13:18;;;;;;;1.37;1.10;;;;;;;14.07;71.03;99810.53;4468524;32;33685;-71
2022/10/02 04:16:07;;;;;;;1.85;1.17;;;;;;;14.39;69.88;99817.69;4480755;32;33684;-70
2022/10/02 04:18:58;;;;;;;1.00;0.90;;;;;;;14.30;70.48;99824.78;4482920;32;35019;-69
2022/10/02 04:21:34;;;;;;;2.42;0.93;;;;;;;14.19;70.63;99829.41;4483931;32;34000;-73
2022/10/02 04:24:13;;;;;;;2.30;0.90;;;;;;;14.64;69.00;99825.06;4484138;32;33921;-71
2022/10/02 04:26:57;;;;;;;1.00;0.90;;;;;;;14.48;69.58;99812.50;4484273;32;34081;-77
2022/10/02 04:29:27;;;;;;;0.93;0.80;;;;;;;14.72;68.70;99824.50;4481814;32;35065;-70
2022/10/02 04:32:15;;;;;;;0.90;0.77;;;;;;;14.73;68.19;99834.37;4470226;32;33495;-71
2022/10/02 04:34:43;;;;;;;1.50;0.93;;;;;;;14.57;69.26;99835.44;4472334;32;32781;-71
2022/10/02 04:37:25;;;;;;;1.10;0.90;;;;;;;14.30;69.86;99841.97;4484080;32;34764;-71
2022/10/02 04:40:26;;;;;;;0.98;0.90;;;;;;;14.07;71.09;99842.47;4483551;32;35127;-73
2022/10/02 04:43:15;;;;;;;1.17;1.00;;;;;;;14.51;69.27;99850.16;4483998;32;34514;-72
2022/10/02 04:46:04;;;;;;;1.50;0.93;;;;;;;14.11;71.15;99870.84;4483577;32;33870;-72
2022/10/02 04:48:38;;;;;;;0.75;0.75;;;;;;;14.59;69.01;99873.41;4482389;32;33988;-77
2022/10/02 04:51:25;;;;;;;1.08;0.90;;;;;;;13.86;71.85;99868.84;4482469;32;35006;-77
2022/10/02 04:54:18;;;;;;;0.80;0.80;;;;;;;13.67;72.58;99873.97;4476424;32;34011;-78
2022/10/02 04:56:46;;;;;;;0.80;0.80;;;;;;;14.01;71.61;99882.53;4468449;32;33172;-72
2022/10/02 04:59:16;;;;;;;0.95;0.85;;;;;;;14.19;70.68;99883.97;4467593;32;33892;-74
2022/10/02 05:01:57;;;;;;;1.42;0.85;;;;;;;14.31;70.36;99894.63;4467952;32;33973;-76
2022/10/02 05:04:31;;;;;;;1.17;0.93;;;;;;;14.14;70.94;99897.59;4467460;32;34719;-79
2022/10/02 05:07:32;;;;;;;1.08;0.98;;;;;;;14.00;71.15;99894.56;4469698;32;33795;-77
2022/10/02 05:10:09;;;;;;;0.73;0.70;;;;;;;13.92;71.65;99904.06;4468468;32;34012;-78
2022/10/02 05:12:36;;;;;;;1.02;0.88;;;;;;;14.23;70.66;99906.88;4470139;32;33854;-81
2022/10/02 05:15:26;;;;;;;0.80;0.80;;;;;;;13.91;71.46;99915.25;4470041;32;34459;-83
2022/10/02 05:18:25;;;;;;;1.40;1.08;;;;;;;14.20;70.92;99915.63;4468627;32;34286;-84
2022/10/02 05:21:14;;;;;;;1.00;0.88;;;;;;;14.24;70.14;99926.81;4472141;32;34317;-80
2022/10/02 05:24:00;;;;;;;1.12;1.00;;;;;;;14.26;70.62;99913.72;4485127;32;34177;-81
2022/10/02 05:27:01;;;;;;;1.00;0.90;;;;;;;14.47;70.10;99911.84;4485478;32;34628;-79
2022/10/02 05:29:45;;;;;;;0.88;0.80;;;;;;;14.50;70.01;99911.31;4485133;32;33557;-79
2022/10/02 05:32:20;;;;;;;1.37;0.95;;;;;;;14.62;69.82;99913.81;4484027;32;33998;-79
2022/10/02 05:35:15;;;;;;;1.00;0.90;;;;;;;14.35;70.73;99923.03;4485584;32;35195;-80
2022/10/02 05:37:55;;;;;;;;;;;;;;;14.78;68.95;99923.66;4484460;32;34560;-79
2022/10/02 05:40:50;;;;;;;1.05;0.95;;;;;;;14.88;68.83;99925.56;4485321;32;33304;-78
2022/10/02 05:43:38;;;;;;;1.42;1.00;;;;;;;14.72;68.55;99920.09;4485593;32;33850;-82
2022/10/02 05:46:17;;;;;;;0.82;0.77;;;;;;;14.93;67.96;99923.66;4479976;32;34187;-79
2022/10/02 05:48:56;;;;;;;1.12;0.93;;;;;;;15.14;67.38;99937.31;4484613;32;33773;-81
2022/10/02 05:51:41;;;;;;;1.50;0.77;;;;;;;15.40;66.47;99927.19;4484128;32;34459;-80
2022/10/02 05:54:19;;;;;;;0.70;0.70;;;;;;;15.64;65.36;99927.41;4484933;32;34306;-80
2022/10/02 05:56:51;;;;;;;1.45;0.95;;;;;;;16.14;63.27;99941.19;4485276;32;35029;-81
2022/10/02 05:59:42;;;;;;;0.90;0.80;;;;;;;16.32;63.21;99946.00;4470819;32;33660;-79
2022/10/02 06:02:16;;;;;;;0.93;0.80;;;;;;;16.56;62.94;99946.13;4477695;32;33418;-80
2022/10/02 06:04:51;;;;;;;2.62;0.90;;;;;;;17.13;59.03;99954.81;4485017;32;34777;-75
2022/10/02 06:07:19;;;;;;;1.10;1.00;;;;;;;16.89;61.43;99942.94;4482095;32;33869;-75
2022/10/02 06:09:51;;;;;;;0.70;0.70;;;;;;;17.03;60.41;99949.41;4484326;32;35219;-75
2022/10/02 06:12:34;;;;;;;0.82;0.80;;;;;;;17.17;58.36;99957.78;4483072;32;34217;-73
2022/10/02 06:15:05;;;;;;;0.90;0.90;;;;;;;17.59;57.44;99956.28;4483254;32;35444;-72
2022/10/02 06:17:46;;;;;;;0.90;0.80;;;;;;;16.90;62.26;99961.84;4484667;32;33794;-73
2022/10/02 06:20:21;;;;;;;1.10;0.80;;;;;;;17.15;59.55;99960.00;4484972;32;33830;-73
2022/10/02 06:22:51;;;;;;;;;;;;;;;17.40;58.38;99969.91;4484265;32;34245;-73
2022/10/02 06:25:30;;;;;;;0.82;0.80;;;;;;;17.88;57.16;99977.41;4484891;32;34236;-76
2022/10/02 06:28:18;;;;;;;0.80;0.80;;;;;;;18.23;55.51;99985.22;4484625;32;33839;-74
2022/10/02 06:30:48;;;;;;;0.77;0.77;;;;;;;17.91;55.71;99991.38;4465817;32;33851;-75
2022/10/02 06:33:25;;;;;;;1.00;0.75;;;;;;;17.51;57.44;99989.84;4468258;32;33311;-76
2022/10/02 06:36:23;;;;;;;1.20;0.80;;;;;;;17.51;58.15;99989.84;4469115;32;34634;-76
2022/10/02 06:39:09;;;;;;;1.00;0.80;;;;;;;17.75;57.01;99996.19;4467293;32;33897;-75
2022/10/02 06:41:50;;;;;;;0.68;0.68;;;;;;;18.12;55.68;99991.97;4469034;32;33881;-77
2022/10/02 06:44:29;;;;;;;2.10;0.70;;;;;;;18.13;55.62;100001.81;4467461;32;34172;-76
2022/10/02 06:47:16;;;;;;;0.90;0.70;;;;;;;17.81;56.06;100002.44;4468989;32;35292;-76
2022/10/02 06:50:09;;;;;;;1.45;0.80;;;;;;;17.74;55.95;100007.47;4469156;32;35001;-79
2022/10/02 06:53:18;;;;;;;1.30;0.90;;;;;;;17.48;58.02;100017.84;4468168;32;33657;-78
2022/10/02 06:56:26;;;;;;;1.10;0.90;;;;;;;17.71;56.70;100027.22;4451330;32;33657;-76
2022/10/02 06:59:13;;;;;;;1.77;0.88;;;;;;;17.69;57.10;100029.44;4470929;32;34741;-79
2022/10/02 07:01:47;;;;;;;1.23;0.90;;;;;;;18.05;56.21;100035.41;4482413;32;34892;-77
2022/10/02 07:04:33;;;;;;;0.95;0.77;;;;;;;18.07;56.18;100030.44;4484904;32;34026;-80
2022/10/02 07:07:37;;;;;;;1.65;1.00;;;;;;;18.23;55.48;100033.84;4484591;32;32969;-74
2022/10/02 07:10:17;;;;;;;1.70;0.90;;;;;;;18.19;56.08;100041.84;4479782;32;34744;-74
2022/10/02 07:13:01;;;;;;;1.70;1.20;;;;;;;18.10;55.54;100060.09;4483423;32;35072;-75
2022/10/02 07:15:34;;;;;;;;;;;;;;;17.96;56.39;100053.63;4483995;32;33884;-80
2022/10/02 07:18:41;;;;;;;1.00;0.90;;;;;;;18.62;54.44;100049.31;4484344;32;33754;-79
2022/10/02 07:21:20;;;;;;;1.15;0.93;;;;;;;18.41;56.29;100052.28;4482843;32;34088;-84
2022/10/02 07:23:53;;;;;;;1.95;1.10;;;;;;;18.25;56.96;100045.38;4483033;32;34006;-82
2022/10/02 07:26:39;;;;;;;0.90;0.80;;;;;;;17.78;60.12;100039.50;4481659;32;33746;-77
2022/10/02 07:29:33;;;;;;;0.77;0.75;;;;;;;18.08;58.12;100045.84;4482044;32;33117;-80
2022/10/02 07:32:13;;;;;;;0.77;0.77;;;;;;;18.42;55.70;100045.72;4484128;32;34818;-79
2022/10/02 07:35:01;;;;;;;1.30;1.00;;;;;;;18.28;57.04;100044.78;4484506;32;35081;-77
2022/10/02 07:37:48;;;;;;;0.80;0.80;;;;;;;18.72;56.71;100051.91;4484104;32;33914;-79
2022/10/02 07:40:40;;;;;;;0.90;0.80;;;;;;;19.72;51.22;100048.19;4483906;32;34810;-80
2022/10/02 07:43:25;;;;;;;0.82;0.70;;;;;;;19.66;51.66;100056.53;4482649;32;34545;-75
2022/10/02 07:46:09;;;;;;;1.30;0.70;;;;;;;19.54;53.16;100055.38;4482961;32;34289;-78
2022/10/02 07:49:03;;;;;;;1.58;0.82;;;;;;;19.78;53.66;100061.56;4482264;32;34890;-75
2022/10/02 07:51:47;;;;;;;1.17;0.80;;;;;;;19.80;52.58;100058.53;4484262;32;33807;-78
2022/10/02 07:54:42;;;;;;;0.88;0.80;;;;;;;19.98;50.42;100060.41;4483348;32;34115;-75
2022/10/02 07:57:16;;;;;;;0.95;0.80;;;;;;;20.04;51.83;100063.87;4484422;32;35095;-79
2022/10/02 07:59:45;;;;;;;0.85;0.70;;;;;;;19.87;52.70;100062.53;4483372;32;33570;-78
2022/10/02 08:02:42;;;;;;;0.70;0.70;;;;;;;19.67;52.64;100060.09;4482717;32;34311;-79
2022/10/02 08:05:18;;;;;;;1.58;0.80;;;;;;;19.82;51.33;100070.06;4463000;32;34017;-81
2022/10/02 08:07:49;;;;;;;1.48;0.90;;;;;;;19.80;50.93;100072.28;4469535;32;34601;-79
2022/10/02 08:10:22;;;;;;;0.88;0.82;;;;;;;19.63;51.69;100083.84;4482322;32;34365;-78
2022/10/02 08:13:19;;;;;;;1.23;0.90;;;;;;;19.40;51.76;100083.66;4482736;32;33856;-83
2022/10/02 08:15:51;;;;;;;0.70;0.70;;;;;;;19.52;50.62;100080.44;4483138;32;33438;-83
2022/10/02 08:18:26;;;;;;;0.60;0.60;;;;;;;19.34;51.40;100073.03;4483911;32;33956;-76
2022/10/02 08:21:04;;;;;;;1.35;0.88;;;;;;;19.04;51.89;100083.38;4482713;32;33828;-81
2022/10/02 08:23:38;;;;;;;1.35;0.80;;;;;;;18.50;53.26;100070.87;4483019;32;32438;-76
2022/10/02 08:26:26;;;;;;;1.47;0.90;;;;;;;18.47;55.03;100072.28;4483032;32;34893;-83
2022/10/02 08:29:07;;;;;;;1.30;0.82;;;;;;;18.88;52.75;100077.28;4482965;32;35567;-77
2022/10/02 08:31:34;;;;;;;0.82;0.80;;;;;;;17.80;57.01;100080.41;4481975;32;33694;-77
2022/10/02 08:34:22;;;;;;;1.48;0.90;;;;;;;18.28;55.69;100087.91;4483977;32;34349;-78
2022/10/02 08:37:18;;;;;;;1.50;0.90;;;;;;;18.39;56.65;100086.66;4484342;32;33976;-78
2022/10/02 08:40:19;;;;;;;1.95;1.17;;;;;;;18.80;53.63;100095.25;4483147;32;34935;-76
2022/10/02 08:43:08;;;;;;;1.60;1.12;;;;;;;18.58;52.59;100090.28;4482956;32;34913;-72
2022/10/02 08:45:54;;;;;;;1.12;0.70;;;;;;;18.33;53.71;100087.84;4484025;32;34605;-76
2022/10/02 08:48:55;;;;;;;1.23;0.70;;;;;;;18.38;51.80;100094.09;4483448;32;34482;-76
2022/10/02 08:52:11;;;;;;;0.93;0.70;;;;;;;18.73;52.72;100077.47;4482164;32;34256;-75
2022/10/02 08:54:45;;;;;;;0.80;0.80;;;;;;;18.77;52.60;100081.25;4450244;32;34526;-74
2022/10/02 08:57:28;;;;;;;1.67;1.00;;;;;;;18.88;50.92;100082.78;4478888;31;33392;-75
2022/10/02 09:00:23;;;;;;;1.70;0.95;;;;;;;18.62;52.30;100096.84;4483743;32;34060;-75
2022/10/02 09:03:25;;;;;;;1.67;0.73;;;;;;;18.16;54.57;100096.53;4483747;32;34312;-75
2022/10/02 09:06:20;;;;;;;0.75;0.75;;;;;;;18.56;52.42;100095.25;4482605;32;34036;-76
2022/10/02 09:09:06;;;;;;;;;;;;;;;19.01;51.35;100087.53;4483630;32;33526;-75
2022/10/02 09:11:49;;;;;;;3.42;0.85;;;;;;;18.55;53.08;100084.56;4483213;32;34265;-75
2022/10/02 09:14:41;;;;;;;1.20;0.90;;;;;;;18.97;52.42;100082.94;4483536;32;33833;-76
2022/10/02 09:17:40;;;;;;;0.85;0.85;;;;;;;18.96;51.75;100095.03;4483600;32;34641;-74
2022/10/02 09:20:32;;;;;;;1.35;1.00;;;;;;;18.65;55.75;100082.50;4483471;32;34156;-76
2022/10/02 09:23:20;;;;;;;0.93;0.82;;;;;;;19.19;51.43;100093.34;4483558;32;34515;-74
2022/10/02 09:25:51;;;;;;;0.70;0.70;;;;;;;19.38;50.40;100094.16;4482170;32;34172;-75
2022/10/02 09:28:27;;;;;;;2.17;0.80;;;;;;;19.23;51.29;100088.88;4483262;32;34079;-75
2022/10/02 09:31:13;;;;;;;1.15;0.85;;;;;;;18.71;53.86;100096.19;4483124;32;33476;-76
2022/10/02 09:34:09;;;;;;;0.70;0.70;;;;;;;18.94;51.57;100084.34;4483494;32;33767;-73
2022/10/02 09:36:45;;;;;;;1.27;0.77;;;;;;;18.78;53.30;100072.75;4483202;32;35096;-76
2022/10/02 09:39:31;;;;;;;1.12;0.80;;;;;;;18.30;52.92;100072.75;4483127;32;33614;-75
2022/10/02 09:42:14;;;;;;;0.95;0.60;;;;;;;18.21;50.69;100069.84;4483069;32;33620;-74
2022/10/02 09:45:22;;;;;;;0.77;0.77;;;;;;;18.51;51.16;100078.00;4483102;32;33507;-75
2022/10/02 09:48:07;;;;;;;0.88;0.75;;;;;;;19.03;49.69;100073.50;4481608;32;34956;-76
2022/10/02 09:50:44;;;;;;;73.28;55.80;;;;;;;19.23;46.74;100069.62;4483010;32;33999;-74
2022/10/02 09:53:26;;;;;;;1.23;1.12;;;;;;;18.83;48.89;100071.84;4485254;32;33150;-76
2022/10/02 09:56:21;;;;;;;1.33;0.88;;;;;;;19.12;47.09;100074.47;4485429;32;33792;-74
2022/10/02 09:59:03;;;;;;;1.77;0.80;;;;;;;18.34;49.80;100068.31;4484094;32;34161;-75
2022/10/02 10:01:52;;;;;;;1.25;0.65;;;;;;;19.03;49.45;100071.56;4485164;32;33927;-74
2022/10/02 10:04:52;;;;;;;0.70;0.70;;;;;;;18.79;48.14;100068.88;4484064;32;33599;-76
2022/10/02 10:07:52;;;;;;;1.33;0.70;;;;;;;19.37;47.96;100064.16;4484981;32;33770;-75
2022/10/02 10:10:23;;;;;;;1.08;0.80;;;;;;;19.39;45.59;100053.69;4485093;32;34082;-77
2022/10/02 10:13:15;;;;;;;0.70;0.70;;;;;;;19.41;47.21;100055.00;4485405;32;33600;-74
2022/10/02 10:16:10;;;;;;;1.67;0.70;;;;;;;19.58;46.94;100046.22;4485174;32;33115;-73
2022/10/02 10:19:01;;;;;;;1.20;1.00;;;;;;;19.69;46.56;100044.09;4484948;32;34674;-74
2022/10/02 10:21:56;;;;;;;1.55;0.68;;;;;;;19.52;46.36;100055.66;4484973;32;34962;-75
2022/10/02 10:24:45;;;;;;;1.67;1.02;;;;;;;19.26;48.17;100045.09;4485475;32;34551;-73
2022/10/02 10:27:46;;;;;;;0.80;0.80;;;;;;;19.57;46.98;100055.59;4485381;32;33453;-79
2022/10/02 10:30:31;;;;;;;0.70;0.70;;;;;;;19.32;49.23;100034.81;4484829;32;33814;-75
2022/10/02 10:33:12;;;;;;;2.25;0.98;;;;;;;19.28;45.90;100050.28;4484867;32;34030;-75
2022/10/02 10:35:52;;;;;;;2.20;0.70;;;;;;;19.47;46.20;100053.00;4485381;32;34228;-75
2022/10/02 10:38:37;;;;;;;1.42;0.85;;;;;;;19.51;45.72;100044.97;4484735;32;33367;-75
2022/10/02 10:41:37;;;;;;;1.58;1.05;;;;;;;19.22;46.48;100043.22;4471205;32;32853;-75
2022/10/02 10:44:21;;;;;;;4.28;1.00;;;;;;;19.33;47.49;100044.72;4484748;32;35191;-76
2022/10/02 10:47:42;;;;;;;1.52;0.82;;;;;;;18.96;46.46;100046.38;4468536;31;34850;-78
2022/10/02 10:50:24;;;;;;;1.95;1.12;;;;;;;18.67;48.25;100040.16;4448550;32;33460;-74
2022/10/02 10:53:21;;;;;;;0.95;0.80;;;;;;;18.79;48.71;100046.06;4467574;32;34045;-74
2022/10/02 10:56:35;;;;;;;1.98;1.02;;;;;;;18.46;49.68;100045.91;4470267;32;34074;-79
2022/10/02 10:59:05;;;;;;;2.87;0.90;;;;;;;18.41;52.25;100032.25;4483795;32;34690;-72
2022/10/02 11:01:43;;;;;;;1.48;0.80;;;;;;;18.38;49.03;100039.16;4484431;32;34395;-73
2022/10/02 11:04:14;;;;;;;1.30;0.90;;;;;;;18.59;48.85;100036.13;4484513;32;33873;-72
2022/10/02 11:06:50;;;;;;;0.70;0.70;;;;;;;18.79;48.14;100041.41;4484663;32;34270;-72
2022/10/02 11:09:39;;;;;;;0.82;0.80;;;;;;;18.73;49.05;100056.28;4482341;32;34105;-72
2022/10/02 11:12:20;;;;;;;2.85;0.88;;;;;;;18.79;49.45;100055.16;4483295;32;33213;-72
2022/10/02 11:14:57;;;;;;;1.23;0.80;;;;;;;18.63;51.36;100049.00;4485003;32;34087;-71
2022/10/02 11:17:39;;;;;;;0.75;0.70;;;;;;;18.42;49.77;100059.44;4483483;32;35057;-72
2022/10/02 11:20:18;;;;;;;1.98;1.10;;;;;;;18.71;50.16;100054.97;4484799;32;33918;-74
2022/10/02 11:23:06;;;;;;;0.70;0.70;;;;;;;18.48;49.94;100051.13;4483118;32;33332;-71
2022/10/02 11:26:01;;;;;;;1.35;0.90;;;;;;;18.43;50.51;100038.28;4477883;32;34011;-71
2022/10/02 11:28:41;;;;;;;0.80;0.80;;;;;;;18.02;52.69;100047.00;4483044;32;35097;-71
2022/10/02 11:31:31;;;;;;;1.10;0.90;;;;;;;18.03;52.55;100035.72;4468932;32;33921;-74
2022/10/02 11:34:05;;;;;;;1.17;0.93;;;;;;;18.28;51.68;100043.97;4467966;32;34416;-73
2022/10/02 11:36:46;;;;;;;0.70;0.70;;;;;;;18.19;51.67;100028.13;4468317;32;33991;-72
2022/10/02 11:39:55;;;;;;;1.08;0.90;;;;;;;18.29;50.63;100032.66;4467094;32;34094;-73
2022/10/02 11:42:29;;;;;;;2.22;1.02;;;;;;;18.14;51.25;100028.19;4467902;32;34116;-80
2022/10/02 11:44:57;;;;;;;;;;;;;;;18.58;50.50;100016.09;4469032;32;33136;-74
2022/10/02 11:47:47;;;;;;;1.12;0.80;;;;;;;18.51;52.05;100028.53;4477646;32;33962;-73
2022/10/02 11:50:36;;;;;;;1.05;0.90;;;;;;;18.74;51.05;100021.38;4472146;32;35040;-71
2022/10/02 11:53:33;;;;;;;0.85;0.85;;;;;;;18.64;51.10;100020.41;4472723;32;34059;-71
2022/10/02 11:56:34;;;;;;;1.52;0.93;;;;;;;18.97;50.35;100020.50;4468839;32;33566;-71
2022/10/02 11:59:48;;;;;;;0.98;0.80;;;;;;;18.87;50.45;100017.91;4475982;32;33969;-70
2022/10/02 12:02:41;;;;;;;1.55;0.90;;;;;;;19.00;53.10;100022.66;4458966;32;34819;-72
2022/10/02 12:05:32;;;;;;;1.65;0.90;;;;;;;19.27;51.99;100023.91;4468533;32;33870;-72
2022/10/02 12:08:07;;;;;;;0.85;0.80;;;;;;;19.25;51.27;100026.94;4468711;32;33345;-72
2022/10/02 12:10:47;;;;;;;0.77;0.70;;;;;;;19.15;51.64;100032.59;4466028;32;33919;-72
2022/10/02 12:13:50;;;;;;;0.70;0.70;;;;;;;19.10;52.37;100040.13;4467277;32;34062;-74
2022/10/02 12:16:40;;;;;;;0.70;0.65;;;;;;;18.76;54.43;100030.13;4460047;32;34664;-74
2022/10/02 12:19:37;;;;;;;0.60;0.60;;;;;;;18.83;53.91;100027.88;4467093;32;34279;-70
2022/10/02 12:28:42;;;;;;;0.70;0.50;;;;;;;18.14;55.34;100008.97;4470137;32;34826;-72
2022/10/02 12:31:17;;;;;;;1.42;0.60;;;;;;;18.63;54.95;100001.47;4478065;32;166102;-71
2022/10/02 12:34:00;;;;;;;0.68;0.68;;;;;;;18.52;55.07;99988.97;4483688;32;34078;-72
2022/10/02 12:36:55;;;;;;;1.75;0.70;;;;;;;18.45;55.30;100000.34;4483710;32;34738;-74
2022/10/02 12:39:39;;;;;;;0.77;0.70;;;;;;;18.38;54.76;99997.12;4483795;32;33717;-74
2022/10/02 12:42:25;;;;;;;0.65;0.60;;;;;;;18.26;55.52;99986.56;4482643;32;33276;-75
2022/10/02 12:45:26;;;;;;;0.80;0.70;;;;;;;18.31;56.06;99986.50;4482881;32;34621;-79
2022/10/02 12:48:06;;;;;;;1.17;0.85;;;;;;;18.32;55.61;99979.09;4483222;32;33102;-75
2022/10/02 12:51:06;;;;;;;0.95;0.88;;;;;;;18.24;55.98;99984.09;4482057;32;34645;-73
2022/10/02 12:53:59;;;;;;;1.15;0.80;;;;;;;18.34;55.68;99976.88;4484183;32;33552;-73